createdAt,value
2023-01-07T00:01:37.415Z,99.90
2023-01-07T00:04:06.172Z,99.90
2023-01-07T00:06:35.415Z,99.90
2023-01-07T00:09:03.680Z,99.90
2023-01-07T00:11:33.516Z,99.90
2023-01-07T00:14:01.165Z,99.90
2023-01-07T00:16:30.681Z,99.90
2023-01-07T00:18:59.750Z,99.90
2023-01-07T00:21:28.066Z,99.90
2023-01-07T00:24:00.164Z,99.90
2023-01-07T00:26:30.227Z,99.90
2023-01-07T00:28:57.577Z,99.90
2023-01-07T00:31:30.110Z,99.90
2023-01-07T00:33:57.088Z,99.90
2023-01-07T00:36:26.818Z,99.90
2023-01-07T00:38:58.027Z,99.90
2023-01-07T00:41:24.803Z,99.90
2023-01-07T00:43:51.740Z,99.90
2023-01-07T00:46:19.547Z,99.90
2023-01-07T00:48:46.583Z,99.90
2023-01-07T00:51:14.687Z,99.90
2023-01-07T00:53:41.768Z,99.90
2023-01-07T00:56:09.987Z,99.90
2023-01-07T00:58:37.017Z,99.90
2023-01-07T01:01:04.481Z,99.90
2023-01-07T01:03:33.070Z,99.90
2023-01-07T01:06:05.085Z,99.90
2023-01-07T01:08:31.968Z,99.90
2023-01-07T01:11:04.002Z,99.90
2023-01-07T01:13:30.703Z,99.90
2023-01-07T01:15:57.525Z,99.90
2023-01-07T01:18:24.356Z,99.90
2023-01-07T01:20:51.037Z,99.90
2023-01-07T01:23:17.743Z,99.90
2023-01-07T01:25:44.427Z,99.90
2023-01-07T01:28:11.151Z,99.90
2023-01-07T01:30:37.810Z,99.90
2023-01-07T01:33:04.527Z,99.90
2023-01-07T01:35:31.303Z,99.90
2023-01-07T01:38:00.716Z,99.90
2023-01-07T01:40:30.498Z,99.90
2023-01-07T01:42:57.131Z,99.90
2023-01-07T01:45:25.855Z,99.90
2023-01-07T01:48:09.406Z,99.90
2023-01-07T01:50:43.871Z,99.90
2023-01-07T01:53:15.858Z,99.90
2023-01-07T01:56:02.449Z,99.90
2023-01-07T01:58:39.288Z,99.90
2023-01-07T02:01:06.180Z,99.90
2023-01-07T02:03:35.783Z,99.90
2023-01-07T02:06:03.053Z,99.90
2023-01-07T02:08:30.073Z,99.90
2023-01-07T02:11:17.533Z,99.90
2023-01-07T02:14:14.316Z,99.90
2023-01-07T02:16:58.667Z,99.90
2023-01-07T02:19:50.659Z,99.90
2023-01-07T02:22:39.137Z,99.90
2023-01-07T02:25:12.395Z,99.90
2023-01-07T02:27:44.553Z,99.90
2023-01-07T02:30:36.093Z,99.90
2023-01-07T02:33:21.746Z,99.90
2023-01-07T02:36:01.665Z,99.90
2023-01-07T02:38:34.268Z,99.90
2023-01-07T02:41:28.956Z,99.90
2023-01-07T02:44:04.045Z,99.90
2023-01-07T02:46:34.211Z,99.90
2023-01-07T02:49:07.293Z,99.90
2023-01-07T02:51:39.507Z,99.90
2023-01-07T02:54:14.922Z,99.90
2023-01-07T02:57:15.646Z,99.90
2023-01-07T03:00:19.137Z,99.90
2023-01-07T03:03:17.659Z,99.90
2023-01-07T03:05:52.256Z,99.90
2023-01-07T03:08:31.215Z,99.90
2023-01-07T03:11:03.761Z,99.90
2023-01-07T03:13:47.966Z,99.90
2023-01-07T03:16:35.336Z,99.90
2023-01-07T03:19:07.428Z,99.90
2023-01-07T03:21:36.014Z,99.90
2023-01-07T03:24:02.825Z,99.90
2023-01-07T03:26:37.372Z,99.90
2023-01-07T03:29:06.959Z,99.90
2023-01-07T03:31:33.895Z,99.90
2023-01-07T03:34:15.083Z,99.90
2023-01-07T03:36:49.579Z,99.90
2023-01-07T03:39:17.571Z,99.90
2023-01-07T03:42:02.854Z,99.90
2023-01-07T03:44:29.465Z,99.90
2023-01-07T03:46:56.278Z,99.90
2023-01-07T03:49:22.885Z,99.90
2023-01-07T03:51:49.640Z,99.90
2023-01-07T03:54:16.462Z,99.90
2023-01-07T03:56:43.186Z,99.90
2023-01-07T03:59:09.902Z,99.90
2023-01-07T04:01:36.798Z,99.90
2023-01-07T04:04:03.784Z,99.90
2023-01-07T04:06:30.612Z,99.90
2023-01-07T04:08:57.251Z,99.90
2023-01-07T04:11:23.918Z,99.90
2023-01-07T04:13:50.546Z,99.90
2023-01-07T04:16:17.320Z,99.90
2023-01-07T04:18:44.005Z,99.90
2023-01-07T04:21:10.763Z,99.90
2023-01-07T04:23:37.412Z,99.90
2023-01-07T04:26:04.199Z,99.90
2023-01-07T04:28:30.845Z,99.90
2023-01-07T04:30:59.353Z,99.90
2023-01-07T04:33:26.089Z,99.90
2023-01-07T04:35:52.957Z,99.90
2023-01-07T04:38:19.717Z,99.90
2023-01-07T04:40:46.352Z,99.90
2023-01-07T04:43:13.003Z,99.90
2023-01-07T04:45:39.646Z,99.90
2023-01-07T04:48:06.618Z,99.90
2023-01-07T04:50:33.323Z,99.90
2023-01-07T04:52:59.999Z,99.90
2023-01-07T04:55:26.670Z,99.90
2023-01-07T04:57:53.325Z,99.90
2023-01-07T05:00:20.118Z,99.90
2023-01-07T05:02:46.750Z,99.90
2023-01-07T05:05:13.435Z,99.90
2023-01-07T05:07:40.061Z,99.90
2023-01-07T05:10:07.172Z,99.90
2023-01-07T05:12:35.353Z,99.90
2023-01-07T05:15:03.967Z,99.90
2023-01-07T05:17:30.601Z,99.90
2023-01-07T05:19:57.234Z,99.90
2023-01-07T05:22:24.126Z,99.90
2023-01-07T05:24:50.785Z,99.90
2023-01-07T05:27:17.450Z,99.90
2023-01-07T05:29:44.097Z,99.90
2023-01-07T05:32:10.737Z,99.90
2023-01-07T05:34:37.407Z,99.90
2023-01-07T05:37:04.105Z,99.90
2023-01-07T05:39:30.870Z,99.90
2023-01-07T05:41:57.490Z,99.90
2023-01-07T05:44:24.241Z,99.90
2023-01-07T05:46:50.893Z,99.90
2023-01-07T05:49:17.589Z,99.90
2023-01-07T05:51:44.344Z,99.90
2023-01-07T05:54:11.085Z,99.90
2023-01-07T05:56:37.717Z,99.90
2023-01-07T05:59:04.487Z,99.90
2023-01-07T06:01:31.271Z,99.90
2023-01-07T06:03:58.005Z,99.90
2023-01-07T06:06:24.945Z,99.90
2023-01-07T06:08:51.686Z,99.90
2023-01-07T06:11:18.405Z,99.70
2023-01-07T06:13:45.015Z,99.40
2023-01-07T06:16:13.817Z,99.40
2023-01-07T06:18:40.589Z,99.30
2023-01-07T06:21:07.405Z,99.40
2023-01-07T06:23:34.233Z,99.50
2023-01-07T06:26:01.041Z,99.50
2023-01-07T06:28:27.731Z,99.10
2023-01-07T06:30:54.544Z,98.90
2023-01-07T06:33:21.333Z,98.80
2023-01-07T06:35:48.240Z,98.50
2023-01-07T06:38:14.907Z,98.30
2023-01-07T06:40:41.599Z,98.20
2023-01-07T06:43:08.201Z,98.30
2023-01-07T06:45:34.931Z,97.90
2023-01-07T06:48:01.723Z,98.10
2023-01-07T06:50:28.389Z,98.00
2023-01-07T06:52:56.801Z,98.40
2023-01-07T06:55:23.522Z,98.20
2023-01-07T06:57:50.237Z,97.80
2023-01-07T07:00:20.090Z,98.30
2023-01-07T07:02:46.743Z,97.80
2023-01-07T07:05:13.458Z,98.20
2023-01-07T07:07:40.152Z,97.90
2023-01-07T07:10:11.676Z,97.60
2023-01-07T07:12:38.869Z,97.60
2023-01-07T07:15:07.409Z,97.60
2023-01-07T07:17:34.659Z,97.70
2023-01-07T07:20:02.831Z,97.50
2023-01-07T07:22:29.576Z,97.50
2023-01-07T07:24:56.179Z,97.70
2023-01-07T07:27:25.115Z,97.70
2023-01-07T07:29:51.721Z,97.70
2023-01-07T07:32:21.340Z,97.70
2023-01-07T07:34:47.983Z,98.40
2023-01-07T07:37:14.705Z,97.70
2023-01-07T07:39:41.355Z,97.50
2023-01-07T07:42:08.272Z,97.50
2023-01-07T07:44:34.923Z,98.00
2023-01-07T07:47:01.770Z,97.70
2023-01-07T07:49:28.504Z,97.60
2023-01-07T07:51:55.392Z,97.50
2023-01-07T07:54:23.871Z,97.20
2023-01-07T07:56:50.856Z,97.20
2023-01-07T07:59:19.537Z,97.10
2023-01-07T08:01:46.325Z,97.10
2023-01-07T08:04:13.063Z,97.10
2023-01-07T08:06:39.718Z,97.00
2023-01-07T08:09:06.505Z,97.20
2023-01-07T08:11:33.215Z,97.20
2023-01-07T08:13:59.902Z,97.40
2023-01-07T08:16:26.753Z,97.30
2023-01-07T08:18:53.494Z,97.20
2023-01-07T08:21:20.302Z,97.30
2023-01-07T08:23:47.030Z,97.20
2023-01-07T08:26:13.842Z,97.20
2023-01-07T08:28:40.475Z,97.30
2023-01-07T08:31:08.124Z,97.50
2023-01-07T08:33:37.723Z,97.90
2023-01-07T08:36:22.430Z,98.00
2023-01-07T08:38:54.090Z,98.00
2023-01-07T08:41:23.145Z,98.90
2023-01-07T08:43:50.417Z,97.70
2023-01-07T08:46:17.135Z,97.70
2023-01-07T08:48:43.922Z,97.80
2023-01-07T08:51:10.560Z,97.80
2023-01-07T08:53:37.327Z,98.10
2023-01-07T08:56:04.256Z,98.30
2023-01-07T08:58:31.099Z,98.60
2023-01-07T09:01:03.021Z,99.10
2023-01-07T09:03:29.785Z,99.70
2023-01-07T09:05:56.465Z,99.80
2023-01-07T09:08:23.131Z,99.20
2023-01-07T09:10:50.063Z,98.90
2023-01-07T09:13:16.723Z,99.00
2023-01-07T09:15:43.364Z,98.90
2023-01-07T09:18:10.039Z,99.00
2023-01-07T09:20:36.757Z,99.20
2023-01-07T09:23:03.687Z,99.00
2023-01-07T09:25:30.327Z,99.40
2023-01-07T09:28:15.826Z,99.80
2023-01-07T09:30:42.640Z,99.10
2023-01-07T09:33:09.353Z,99.00
2023-01-07T09:35:39.216Z,99.10
2023-01-07T09:38:05.892Z,98.60
2023-01-07T09:40:37.596Z,97.80
2023-01-07T09:43:20.440Z,97.80
2023-01-07T09:45:57.053Z,97.70
2023-01-07T09:48:29.647Z,97.70
2023-01-07T09:51:18.871Z,97.50
2023-01-07T09:54:01.636Z,96.80
2023-01-07T09:56:30.693Z,96.70
2023-01-07T09:58:59.680Z,96.90
2023-01-07T10:02:04.944Z,96.80
2023-01-07T10:04:57.436Z,96.20
2023-01-07T10:07:41.045Z,96.10
2023-01-07T10:10:25.865Z,95.60
2023-01-07T10:13:15.860Z,95.90
2023-01-07T10:16:06.080Z,95.40
2023-01-07T10:18:43.930Z,95.80
2023-01-07T10:21:36.749Z,95.30
2023-01-07T10:24:10.580Z,95.00
2023-01-07T10:26:41.680Z,95.40
2023-01-07T10:29:15.978Z,95.60
2023-01-07T10:31:45.085Z,95.30
2023-01-07T10:34:16.326Z,95.30
2023-01-07T10:37:07.692Z,95.50
2023-01-07T10:39:37.088Z,95.20
2023-01-07T10:42:16.955Z,95.20
2023-01-07T10:44:46.445Z,95.20
2023-01-07T10:47:30.593Z,95.30
2023-01-07T10:50:00.277Z,94.80
2023-01-07T10:53:06.619Z,94.20
2023-01-07T10:55:54.268Z,94.10
2023-01-07T10:58:22.808Z,94.20
2023-01-07T11:00:49.766Z,93.60
2023-01-07T11:03:24.257Z,93.10
2023-01-07T11:05:57.329Z,92.80
2023-01-07T11:08:36.763Z,92.90
2023-01-07T11:11:04.387Z,92.70
2023-01-07T11:13:33.681Z,92.60
2023-01-07T11:16:08.207Z,92.60
2023-01-07T11:18:50.359Z,92.90
2023-01-07T11:21:44.177Z,92.70
2023-01-07T11:24:32.265Z,92.80
2023-01-07T11:27:17.432Z,92.70
2023-01-07T11:29:45.396Z,92.80
2023-01-07T11:32:26.033Z,92.50
2023-01-07T11:34:52.702Z,92.50
2023-01-07T11:37:35.286Z,92.70
2023-01-07T11:40:15.780Z,92.60
2023-01-07T11:42:56.123Z,92.90
2023-01-07T11:45:24.294Z,92.70
2023-01-07T11:48:05.969Z,92.40
2023-01-07T11:50:58.294Z,92.60
2023-01-07T11:53:41.521Z,92.50
2023-01-07T11:56:11.961Z,92.60
2023-01-07T11:58:45.621Z,92.60
2023-01-07T12:01:14.350Z,92.50
2023-01-07T12:04:02.097Z,92.50
2023-01-07T12:06:34.951Z,92.50
2023-01-07T12:09:18.412Z,92.60
2023-01-07T12:11:45.769Z,93.20
2023-01-07T12:14:22.951Z,93.30
2023-01-07T12:16:51.711Z,93.10
2023-01-07T12:19:31.483Z,92.90
2023-01-07T12:22:42.386Z,93.10
2023-01-07T12:25:45.671Z,92.60
2023-01-07T12:28:16.837Z,92.70
2023-01-07T12:31:04.618Z,92.50
2023-01-07T12:34:09.591Z,92.40
2023-01-07T12:36:52.377Z,91.80
2023-01-07T12:39:27.714Z,91.80
2023-01-07T12:42:04.904Z,91.90
2023-01-07T12:44:31.765Z,91.20
2023-01-07T12:47:32.336Z,91.20
2023-01-07T12:50:16.612Z,91.60
2023-01-07T12:52:56.201Z,92.00
2023-01-07T12:55:33.688Z,91.80
2023-01-07T12:58:06.382Z,92.00
2023-01-07T13:00:41.130Z,91.80
2023-01-07T13:03:28.188Z,91.70
2023-01-07T13:06:04.637Z,92.10
2023-01-07T13:08:50.232Z,92.10
2023-01-07T13:12:01.650Z,92.10
2023-01-07T13:14:40.247Z,91.70
2023-01-07T13:17:25.669Z,91.00
2023-01-07T13:19:53.265Z,90.90
2023-01-07T13:22:35.020Z,90.40
2023-01-07T13:25:20.647Z,90.20
2023-01-07T13:28:08.503Z,90.20
2023-01-07T13:30:38.061Z,90.10
2023-01-07T13:33:26.239Z,90.40
2023-01-07T13:36:05.338Z,90.00
2023-01-07T13:39:05.682Z,90.10
2023-01-07T13:41:47.702Z,89.90
2023-01-07T13:44:34.123Z,90.00
2023-01-07T13:47:03.668Z,89.20
2023-01-07T13:49:32.847Z,88.70
2023-01-07T13:52:19.045Z,87.80
2023-01-07T13:54:48.546Z,87.20
2023-01-07T13:57:24.150Z,87.20
2023-01-07T13:59:53.554Z,86.30
2023-01-07T14:02:41.856Z,86.50
2023-01-07T14:05:11.712Z,86.70
2023-01-07T14:07:48.116Z,86.70
2023-01-07T14:10:38.849Z,86.00
2023-01-07T14:13:08.355Z,86.50
2023-01-07T14:15:43.185Z,86.30
2023-01-07T14:18:18.829Z,86.60
2023-01-07T14:20:53.308Z,86.80
2023-01-07T14:23:25.863Z,86.10
2023-01-07T14:26:11.575Z,86.20
2023-01-07T14:28:56.723Z,85.80
2023-01-07T14:31:28.932Z,85.70
2023-01-07T14:34:04.834Z,86.10
2023-01-07T14:37:02.423Z,86.20
2023-01-07T14:39:37.470Z,86.10
2023-01-07T14:42:19.226Z,86.00
2023-01-07T14:44:46.231Z,86.10
2023-01-07T14:47:14.766Z,86.30
2023-01-07T14:50:01.069Z,86.80
2023-01-07T14:52:56.345Z,86.80
2023-01-07T14:55:48.242Z,86.60
2023-01-07T14:58:18.057Z,86.70
2023-01-07T15:00:56.718Z,86.70
2023-01-07T15:03:51.242Z,86.80
2023-01-07T15:06:24.973Z,86.60
2023-01-07T15:09:20.174Z,86.50
2023-01-07T15:12:07.932Z,86.40
2023-01-07T15:15:14.741Z,86.70
2023-01-07T15:17:42.314Z,86.40
2023-01-07T15:20:12.697Z,86.00
2023-01-07T15:23:01.935Z,85.90
2023-01-07T15:25:53.840Z,86.20
2023-01-07T15:28:47.912Z,85.90
2023-01-07T15:32:11.638Z,86.40
2023-01-07T15:34:39.303Z,86.70
2023-01-07T15:37:08.682Z,87.00
2023-01-07T15:39:40.850Z,87.20
2023-01-07T15:42:16.142Z,87.40
2023-01-07T15:44:43.528Z,87.50
2023-01-07T15:47:28.788Z,87.90
2023-01-07T15:49:55.494Z,88.20
2023-01-07T15:52:26.238Z,88.50
2023-01-07T15:54:52.932Z,88.50
2023-01-07T15:57:30.150Z,88.60
2023-01-07T15:59:57.521Z,88.80
2023-01-07T16:02:32.292Z,89.10
2023-01-07T16:05:01.445Z,89.10
2023-01-07T16:07:30.614Z,89.20
2023-01-07T16:09:58.083Z,89.40
2023-01-07T16:12:35.393Z,89.50
2023-01-07T16:15:21.977Z,89.50
2023-01-07T16:17:55.140Z,89.70
2023-01-07T16:20:28.659Z,90.00
2023-01-07T16:23:06.323Z,90.00
2023-01-07T16:25:44.210Z,90.00
2023-01-07T16:28:20.864Z,90.90
2023-01-07T16:30:48.864Z,90.50
2023-01-07T16:33:20.215Z,90.30
2023-01-07T16:35:48.376Z,90.40
2023-01-07T16:38:18.449Z,90.40
2023-01-07T16:40:46.487Z,90.40
2023-01-07T16:43:33.476Z,90.20
2023-01-07T16:46:19.068Z,90.30
2023-01-07T16:48:47.063Z,90.30
2023-01-07T16:51:48.088Z,90.40
2023-01-07T16:54:19.537Z,90.50
2023-01-07T16:57:12.339Z,90.40
2023-01-07T16:59:45.241Z,90.60
2023-01-07T17:02:24.281Z,91.20
2023-01-07T17:04:51.054Z,91.30
2023-01-07T17:07:28.705Z,91.40
2023-01-07T17:09:57.716Z,91.40
2023-01-07T17:12:54.321Z,91.40
2023-01-07T17:15:33.121Z,91.80
2023-01-07T17:18:11.984Z,92.00
2023-01-07T17:20:46.720Z,92.10
2023-01-07T17:23:28.707Z,92.40
2023-01-07T17:25:58.503Z,92.60
2023-01-07T17:28:28.108Z,92.70
2023-01-07T17:30:55.214Z,92.80
2023-01-07T17:33:24.573Z,92.80
2023-01-07T17:35:54.155Z,92.80
2023-01-07T17:38:24.189Z,92.90
2023-01-07T17:40:52.012Z,93.00
2023-01-07T17:43:34.296Z,93.20
2023-01-07T17:46:12.447Z,93.30
2023-01-07T17:48:39.676Z,93.30
2023-01-07T17:51:07.238Z,93.60
2023-01-07T17:53:50.113Z,93.70
2023-01-07T17:56:17.238Z,93.90
2023-01-07T17:58:44.959Z,93.80
2023-01-07T18:01:15.187Z,93.60
2023-01-07T18:03:42.360Z,93.90
2023-01-07T18:06:36.986Z,93.90
2023-01-07T18:09:04.964Z,94.20
2023-01-07T18:11:55.320Z,94.20
2023-01-07T18:14:22.118Z,94.20
2023-01-07T18:16:50.655Z,94.10
2023-01-07T18:19:17.474Z,94.10
2023-01-07T18:21:44.247Z,94.10
2023-01-07T18:24:16.614Z,94.00
2023-01-07T18:26:43.393Z,94.00
2023-01-07T18:29:11.847Z,93.90
2023-01-07T18:31:41.572Z,94.20
2023-01-07T18:34:13.155Z,94.40
2023-01-07T18:36:40.491Z,94.40
2023-01-07T18:39:11.037Z,94.60
2023-01-07T18:41:39.769Z,94.80
2023-01-07T18:44:06.468Z,94.70
2023-01-07T18:46:33.327Z,94.60
2023-01-07T18:49:00.373Z,94.90
2023-01-07T18:51:27.113Z,95.10
2023-01-07T18:53:53.827Z,95.20
2023-01-07T18:56:20.600Z,95.00
2023-01-07T18:58:48.137Z,94.90
2023-01-07T19:01:14.942Z,95.00
2023-01-07T19:03:42.032Z,95.00
2023-01-07T19:06:15.117Z,95.00
2023-01-07T19:08:56.672Z,94.90
2023-01-07T19:11:33.465Z,94.90
2023-01-07T19:17:25.648Z,95.10
2023-01-07T19:20:15.755Z,95.30
2023-01-07T19:22:49.681Z,95.30
2023-01-07T19:28:13.824Z,95.30
2023-01-07T19:30:46.834Z,95.50
2023-01-07T19:33:22.197Z,95.50
2023-01-07T19:36:17.978Z,95.70
2023-01-07T19:39:11.500Z,95.70
2023-01-07T19:41:52.323Z,95.90
2023-01-07T19:44:48.105Z,96.00
2023-01-07T19:47:25.311Z,96.00
2023-01-07T19:50:34.080Z,96.00
2023-01-07T19:53:20.189Z,96.00
2023-01-07T19:56:03.726Z,96.20
2023-01-07T19:58:42.032Z,96.30
2023-01-07T20:01:15.742Z,96.30
2023-01-07T20:03:44.085Z,96.30
2023-01-07T20:06:13.516Z,96.30
2023-01-07T20:08:57.057Z,96.30
2023-01-07T20:11:24.720Z,96.40
2023-01-07T20:13:51.834Z,96.60
2023-01-07T20:16:24.195Z,96.80
2023-01-07T20:18:53.435Z,96.90
2023-01-07T20:24:11.625Z,96.80
2023-01-07T20:26:41.682Z,96.70
2023-01-07T20:29:15.998Z,96.80
2023-01-07T20:31:50.418Z,96.80
2023-01-07T20:34:21.538Z,97.00
2023-01-07T20:36:48.251Z,97.20
2023-01-07T20:39:14.991Z,97.20
2023-01-07T20:41:43.100Z,97.20
2023-01-07T20:44:11.762Z,97.20
2023-01-07T20:46:44.022Z,97.30
2023-01-07T20:49:11.791Z,97.40
2023-01-07T20:51:38.889Z,97.30
2023-01-07T20:54:05.719Z,97.40
2023-01-07T20:56:32.806Z,97.40
2023-01-07T20:59:00.938Z,97.70
2023-01-07T21:01:28.109Z,97.60
2023-01-07T21:03:55.530Z,97.70
2023-01-07T21:06:22.593Z,97.80
2023-01-07T21:08:49.685Z,97.90
2023-01-07T21:11:20.188Z,98.00
2023-01-07T21:13:49.767Z,98.10
2023-01-07T21:16:17.490Z,98.10
2023-01-07T21:18:44.300Z,98.00
2023-01-07T21:21:17.498Z,97.90
2023-01-07T21:23:46.723Z,98.10
2023-01-07T21:26:14.832Z,97.90
2023-01-07T21:28:41.966Z,98.30
2023-01-07T21:31:11.334Z,98.10
2023-01-07T21:33:41.848Z,98.40
2023-01-07T21:36:18.956Z,98.60
2023-01-07T21:38:46.494Z,98.60
2023-01-07T21:41:15.973Z,98.60
2023-01-07T21:43:43.284Z,98.40
2023-01-07T21:46:10.526Z,98.60
2023-01-07T21:48:40.101Z,98.50
2023-01-07T21:51:10.777Z,98.50
2023-01-07T21:53:37.550Z,98.40
2023-01-07T21:56:09.324Z,98.30
2023-01-07T21:58:36.912Z,98.40
2023-01-07T22:01:07.707Z,98.70
2023-01-07T22:03:35.899Z,98.80
2023-01-07T22:06:07.999Z,98.70
2023-01-07T22:08:35.473Z,98.90
2023-01-07T22:11:02.532Z,99.00
2023-01-07T22:13:29.349Z,99.20
2023-01-07T22:15:56.169Z,99.00
2023-01-07T22:18:23.034Z,98.90
2023-01-07T22:20:54.856Z,99.40
2023-01-07T22:23:21.878Z,99.90
2023-01-07T22:25:48.746Z,99.90
2023-01-07T22:28:17.741Z,99.90
2023-01-07T22:30:55.366Z,99.60
2023-01-07T22:33:24.243Z,99.60
2023-01-07T22:35:51.834Z,99.60
2023-01-07T22:38:21.681Z,99.70
2023-01-07T22:40:51.234Z,99.70
2023-01-07T22:43:20.480Z,99.90
2023-01-07T22:46:01.355Z,99.90
2023-01-07T22:48:32.010Z,99.90
2023-01-07T22:51:06.941Z,99.90
2023-01-07T22:53:33.892Z,99.90
2023-01-07T22:56:00.734Z,99.90
2023-01-07T22:58:27.399Z,99.90
2023-01-07T23:00:54.088Z,99.90
2023-01-07T23:03:22.804Z,99.90
2023-01-07T23:05:50.800Z,99.90
2023-01-07T23:08:18.123Z,99.90
2023-01-07T23:10:48.867Z,99.90
2023-01-07T23:13:15.694Z,99.90
2023-01-07T23:15:42.429Z,99.90
2023-01-07T23:18:11.212Z,99.90
2023-01-07T23:20:39.257Z,99.90
2023-01-07T23:23:06.320Z,99.90
2023-01-07T23:25:33.128Z,99.90
2023-01-07T23:27:59.805Z,99.90
2023-01-07T23:30:26.465Z,99.90
2023-01-07T23:32:53.141Z,99.90
2023-01-07T23:35:19.925Z,99.90
2023-01-07T23:37:46.701Z,99.90
2023-01-07T23:40:13.506Z,99.90
2023-01-07T23:42:40.140Z,99.90
2023-01-07T23:45:07.341Z,99.90
2023-01-07T23:47:34.261Z,99.90
2023-01-07T23:50:00.969Z,99.90
2023-01-07T23:52:27.918Z,99.90
2023-01-07T23:54:54.649Z,99.90
2023-01-07T23:57:21.576Z,99.90
2023-01-07T23:59:48.855Z,99.90
